Terminal Aerodrome Forecast
Issued by NWS

Home | Current Version | Previous Version | Text Only | Print | Product List | Glossary On
Versions: 1 2 3 4 5 6 7 8 9 10 11 12 13 14 15 16 17 18 19 20 21 22 23 24 25 26 27 28 29
000
FTUS45 KVEF 271720
TAFLAS
TAF
KLAS 271720Z 2718/2824 09006KT P6SM FEW120
     FM272100 13007KT P6SM SCT120
     FM280500 VRB05KT P6SM SCT120
     FM280900 23007KT P6SM SCT120
     FM281600 10007KT P6SM SCT120
     FM282000 16008KT P6SM FEW120=

USA.gov is the U.S. government's official web portal to all federal, state and local government web resources and services.